KHY1131 RPVM-RPLL
Flight info
| Callsign | KHY1131 |
|---|---|
| Flight time | 0h 56m |
| Altitude | 32000 |
| Route | MULO4P MULOP W11 CONDE COND3R |
| Aircraft | MD88/M-SDFGIRWY/C |
Departure
| Time | 2026-05-05 15:55 |
|---|---|
| Airport | Mactan Cebu International Airport (RPVM) |
Arrival
| Time | 2026-05-05 16:52 |
|---|---|
| Airport | Ninoy Aquino International Airport (RPLL) |
| Time | Latitude | Longitude | Altitude | Speed | Heading |
|---|---|---|---|---|---|
| 2026-05-05 15:18 | 10.31633 | 123.98069 | 42 ft | 0 kts | 315° |
| 2026-05-05 15:37 | 10.31626 | 123.98076 | 41 ft | 2 kts | 315° |
| 2026-05-05 15:38 | 10.31616 | 123.98086 | 41 ft | 2 kts | 315° |
| 2026-05-05 15:38 | 10.31606 | 123.98096 | 41 ft | 2 kts | 315° |
| 2026-05-05 15:38 | 10.31595 | 123.98108 | 41 ft | 2 kts | 315° |
| 2026-05-05 15:38 | 10.31588 | 123.98115 | 41 ft | 1 kts | 315° |
| 2026-05-05 15:39 | 10.31584 | 123.98123 | 41 ft | 1 kts | 252° |
| 2026-05-05 15:39 | 10.31587 | 123.98128 | 41 ft | 0 kts | 221° |
| 2026-05-05 15:39 | 10.31574 | 123.98115 | 41 ft | 6 kts | 223° |
| 2026-05-05 15:39 | 10.31547 | 123.98090 | 41 ft | 2 kts | 225° |
| 2026-05-05 15:40 | 10.31546 | 123.98087 | 41 ft | 0 kts | 225° |
| 2026-05-05 15:43 | 10.31539 | 123.98080 | 41 ft | 2 kts | 225° |
| 2026-05-05 15:44 | 10.31523 | 123.98064 | 41 ft | 4 kts | 225° |
| 2026-05-05 15:44 | 10.31497 | 123.98038 | 41 ft | 6 kts | 225° |
| 2026-05-05 15:44 | 10.31456 | 123.97997 | 41 ft | 10 kts | 225° |
| 2026-05-05 15:44 | 10.31405 | 123.97945 | 41 ft | 10 kts | 224° |
| 2026-05-05 15:45 | 10.31348 | 123.97898 | 41 ft | 8 kts | 188° |
| 2026-05-05 15:45 | 10.31300 | 123.97920 | 41 ft | 8 kts | 144° |
| 2026-05-05 15:45 | 10.31275 | 123.97941 | 41 ft | 4 kts | 137° |
| 2026-05-05 15:45 | 10.31251 | 123.97965 | 41 ft | 5 kts | 134° |
| 2026-05-05 15:46 | 10.31220 | 123.97978 | 41 ft | 5 kts | 181° |
| 2026-05-05 15:46 | 10.31186 | 123.97962 | 41 ft | 5 kts | 217° |
| 2026-05-05 15:46 | 10.31155 | 123.97933 | 41 ft | 6 kts | 223° |
| 2026-05-05 15:46 | 10.31119 | 123.97898 | 41 ft | 7 kts | 224° |
| 2026-05-05 15:47 | 10.31079 | 123.97858 | 41 ft | 8 kts | 224° |
| 2026-05-05 15:47 | 10.31035 | 123.97813 | 41 ft | 9 kts | 225° |
| 2026-05-05 15:47 | 10.30986 | 123.97764 | 41 ft | 10 kts | 225° |
| 2026-05-05 15:47 | 10.30933 | 123.97710 | 41 ft | 11 kts | 225° |
| 2026-05-05 15:48 | 10.30875 | 123.97652 | 41 ft | 12 kts | 225° |
| 2026-05-05 15:48 | 10.30817 | 123.97594 | 41 ft | 12 kts | 224° |
| 2026-05-05 15:48 | 10.30755 | 123.97532 | 41 ft | 12 kts | 225° |
| 2026-05-05 15:48 | 10.30689 | 123.97467 | 41 ft | 13 kts | 224° |
| 2026-05-05 15:49 | 10.30621 | 123.97398 | 41 ft | 14 kts | 225° |
| 2026-05-05 15:49 | 10.30548 | 123.97325 | 41 ft | 14 kts | 224° |
| 2026-05-05 15:49 | 10.30475 | 123.97250 | 41 ft | 13 kts | 224° |
| 2026-05-05 15:49 | 10.30432 | 123.97208 | 41 ft | 6 kts | 224° |
| 2026-05-05 15:50 | 10.30407 | 123.97184 | 41 ft | 3 kts | 224° |
| 2026-05-05 15:50 | 10.30392 | 123.97169 | 41 ft | 2 kts | 226° |
| 2026-05-05 15:50 | 10.30380 | 123.97156 | 41 ft | 2 kts | 226° |
| 2026-05-05 15:50 | 10.30351 | 123.97127 | 41 ft | 7 kts | 224° |
| 2026-05-05 15:51 | 10.30305 | 123.97081 | 41 ft | 10 kts | 224° |
| 2026-05-05 15:51 | 10.30246 | 123.97022 | 41 ft | 13 kts | 224° |
| 2026-05-05 15:51 | 10.30175 | 123.96951 | 41 ft | 15 kts | 225° |
| 2026-05-05 15:51 | 10.30091 | 123.96867 | 41 ft | 18 kts | 225° |
| 2026-05-05 15:52 | 10.29999 | 123.96776 | 41 ft | 17 kts | 224° |
| 2026-05-05 15:52 | 10.29927 | 123.96705 | 41 ft | 10 kts | 208° |
| 2026-05-05 15:52 | 10.29866 | 123.96724 | 41 ft | 8 kts | 135° |
| 2026-05-05 15:52 | 10.29816 | 123.96775 | 41 ft | 11 kts | 135° |
| 2026-05-05 15:53 | 10.29762 | 123.96829 | 41 ft | 11 kts | 135° |
| 2026-05-05 15:53 | 10.29716 | 123.96878 | 41 ft | 7 kts | 123° |
| 2026-05-05 15:53 | 10.29719 | 123.96899 | 41 ft | 0 kts | 47° |
| 2026-05-05 15:54 | 10.29720 | 123.96900 | 41 ft | 1 kts | 47° |
| 2026-05-05 15:54 | 10.29832 | 123.97015 | 41 ft | 55 kts | 44° |
| 2026-05-05 15:55 | 10.30261 | 123.97444 | 41 ft | 114 kts | 45° |
| 2026-05-05 15:55 | 10.30939 | 123.98128 | 92 ft | 154 kts | 44° |
| 2026-05-05 15:55 | 10.31673 | 123.98885 | 678 ft | 151 kts | 45° |
| 2026-05-05 15:55 | 10.32404 | 123.99644 | 1197 ft | 154 kts | 44° |
| 2026-05-05 15:56 | 10.33157 | 124.00414 | 1749 ft | 154 kts | 44° |
| 2026-05-05 15:56 | 10.33881 | 124.01170 | 2315 ft | 151 kts | 44° |
| 2026-05-05 15:56 | 10.34622 | 124.01942 | 2896 ft | 155 kts | 44° |
| 2026-05-05 15:56 | 10.35444 | 124.02624 | 3445 ft | 157 kts | 15° |
| 2026-05-05 15:57 | 10.36487 | 124.02558 | 4036 ft | 157 kts | 333° |
| 2026-05-05 15:57 | 10.37439 | 124.01941 | 4569 ft | 167 kts | 324° |
| 2026-05-05 15:57 | 10.38371 | 124.01235 | 5178 ft | 172 kts | 324° |
| 2026-05-05 15:57 | 10.39341 | 124.00489 | 5787 ft | 179 kts | 324° |
| 2026-05-05 15:58 | 10.40345 | 123.99706 | 6399 ft | 186 kts | 323° |
| 2026-05-05 15:58 | 10.41373 | 123.98895 | 7004 ft | 194 kts | 322° |
| 2026-05-05 15:58 | 10.42453 | 123.98033 | 7617 ft | 202 kts | 322° |
| 2026-05-05 15:58 | 10.43576 | 123.97133 | 8227 ft | 210 kts | 321° |
| 2026-05-05 15:59 | 10.44718 | 123.96210 | 8817 ft | 215 kts | 321° |
| 2026-05-05 15:59 | 10.45904 | 123.95250 | 9413 ft | 221 kts | 321° |
| 2026-05-05 15:59 | 10.47097 | 123.94281 | 9996 ft | 226 kts | 320° |
| 2026-05-05 15:59 | 10.48342 | 123.93269 | 10589 ft | 231 kts | 320° |
| 2026-05-05 16:00 | 10.49624 | 123.92223 | 10900 ft | 250 kts | 320° |
| 2026-05-05 16:00 | 10.51052 | 123.91057 | 10962 ft | 279 kts | 320° |
| 2026-05-05 16:00 | 10.52648 | 123.89753 | 11073 ft | 305 kts | 320° |
| 2026-05-05 16:00 | 10.54351 | 123.88363 | 11401 ft | 321 kts | 320° |
| 2026-05-05 16:01 | 10.56126 | 123.86915 | 11885 ft | 332 kts | 320° |
| 2026-05-05 16:01 | 10.57939 | 123.85435 | 12448 ft | 339 kts | 320° |
| 2026-05-05 16:01 | 10.59771 | 123.83939 | 13039 ft | 345 kts | 320° |
| 2026-05-05 16:01 | 10.61682 | 123.82378 | 13657 ft | 350 kts | 320° |
| 2026-05-05 16:02 | 10.63565 | 123.80840 | 14257 ft | 354 kts | 320° |
| 2026-05-05 16:02 | 10.65489 | 123.79269 | 14852 ft | 358 kts | 320° |
| 2026-05-05 16:02 | 10.67431 | 123.77683 | 15435 ft | 362 kts | 320° |
| 2026-05-05 16:02 | 10.69408 | 123.76068 | 16007 ft | 365 kts | 320° |
| 2026-05-05 16:03 | 10.71380 | 123.74458 | 16557 ft | 369 kts | 320° |
| 2026-05-05 16:03 | 10.73388 | 123.72818 | 17095 ft | 372 kts | 320° |
| 2026-05-05 16:03 | 10.75389 | 123.71184 | 17612 ft | 375 kts | 320° |
| 2026-05-05 16:03 | 10.77432 | 123.69516 | 18119 ft | 379 kts | 320° |
| 2026-05-05 16:04 | 10.79486 | 123.67840 | 18611 ft | 382 kts | 320° |
| 2026-05-05 16:04 | 10.81573 | 123.66135 | 19092 ft | 385 kts | 320° |
| 2026-05-05 16:04 | 10.83680 | 123.64416 | 19558 ft | 388 kts | 320° |
| 2026-05-05 16:04 | 10.85770 | 123.62710 | 20005 ft | 391 kts | 320° |
| 2026-05-05 16:05 | 10.87881 | 123.60986 | 20441 ft | 394 kts | 320° |
| 2026-05-05 16:05 | 10.90029 | 123.59232 | 20879 ft | 396 kts | 320° |
| 2026-05-05 16:05 | 10.92183 | 123.57474 | 21305 ft | 399 kts | 320° |
| 2026-05-05 16:05 | 10.94305 | 123.55743 | 21716 ft | 401 kts | 320° |
| 2026-05-05 16:06 | 10.96460 | 123.53984 | 22119 ft | 403 kts | 320° |
| 2026-05-05 16:06 | 10.98641 | 123.52204 | 22514 ft | 405 kts | 320° |
| 2026-05-05 16:06 | 11.00860 | 123.50396 | 22905 ft | 407 kts | 321° |
| 2026-05-05 16:06 | 11.03180 | 123.48750 | 23280 ft | 410 kts | 325° |
| 2026-05-05 16:07 | 11.05543 | 123.47120 | 23642 ft | 412 kts | 324° |
| 2026-05-05 16:07 | 11.07922 | 123.45463 | 23986 ft | 414 kts | 324° |
| 2026-05-05 16:07 | 11.10288 | 123.43808 | 24319 ft | 416 kts | 324° |
| 2026-05-05 16:07 | 11.12686 | 123.42128 | 24647 ft | 419 kts | 324° |
| 2026-05-05 16:08 | 11.15062 | 123.40461 | 24962 ft | 421 kts | 324° |
| 2026-05-05 16:08 | 11.17512 | 123.38740 | 25277 ft | 423 kts | 324° |
| 2026-05-05 16:08 | 11.19915 | 123.37052 | 25577 ft | 425 kts | 324° |
| 2026-05-05 16:08 | 11.22350 | 123.35342 | 25874 ft | 427 kts | 324° |
| 2026-05-05 16:09 | 11.24798 | 123.33624 | 26167 ft | 429 kts | 324° |
| 2026-05-05 16:09 | 11.27250 | 123.31901 | 26447 ft | 431 kts | 324° |
| 2026-05-05 16:09 | 11.29697 | 123.30182 | 26722 ft | 432 kts | 324° |
| 2026-05-05 16:09 | 11.32179 | 123.28439 | 26989 ft | 434 kts | 324° |
| 2026-05-05 16:10 | 11.34653 | 123.26701 | 27247 ft | 436 kts | 324° |
| 2026-05-05 16:10 | 11.37181 | 123.24925 | 27502 ft | 438 kts | 324° |
| 2026-05-05 16:10 | 11.39667 | 123.23180 | 27766 ft | 439 kts | 324° |
| 2026-05-05 16:10 | 11.42178 | 123.21416 | 28052 ft | 439 kts | 324° |
| 2026-05-05 16:11 | 11.44690 | 123.19652 | 28346 ft | 439 kts | 324° |
| 2026-05-05 16:11 | 11.52200 | 123.14378 | 29237 ft | 438 kts | 324° |
| 2026-05-05 16:12 | 11.54725 | 123.12605 | 29535 ft | 438 kts | 324° |
| 2026-05-05 16:12 | 11.59718 | 123.09100 | 30115 ft | 436 kts | 324° |
| 2026-05-05 16:13 | 11.67183 | 123.03859 | 30939 ft | 435 kts | 324° |
| 2026-05-05 16:13 | 11.69650 | 123.02127 | 31207 ft | 434 kts | 325° |
| 2026-05-05 16:13 | 11.72116 | 123.00396 | 31466 ft | 434 kts | 324° |
| 2026-05-05 16:14 | 11.77072 | 122.96917 | 31877 ft | 433 kts | 324° |
| 2026-05-05 16:14 | 11.82080 | 122.93401 | 31893 ft | 444 kts | 325° |
| 2026-05-05 16:15 | 11.92462 | 122.86115 | 31891 ft | 461 kts | 325° |
| 2026-05-05 16:16 | 12.03097 | 122.78651 | 31888 ft | 470 kts | 325° |
| 2026-05-05 16:17 | 12.11197 | 122.72968 | 31886 ft | 473 kts | 325° |
| 2026-05-05 16:18 | 12.19302 | 122.67282 | 31883 ft | 471 kts | 325° |
| 2026-05-05 16:19 | 12.27383 | 122.61613 | 31884 ft | 471 kts | 325° |
| 2026-05-05 16:19 | 12.35447 | 122.55957 | 31885 ft | 471 kts | 325° |
| 2026-05-05 16:20 | 12.46188 | 122.48344 | 31897 ft | 471 kts | 324° |
| 2026-05-05 16:22 | 12.59566 | 122.38822 | 31911 ft | 471 kts | 324° |
| 2026-05-05 16:23 | 12.70312 | 122.31174 | 31912 ft | 471 kts | 324° |
| 2026-05-05 16:23 | 12.78348 | 122.25455 | 31912 ft | 471 kts | 324° |
| 2026-05-05 16:24 | 12.83679 | 122.21662 | 31912 ft | 471 kts | 324° |
| 2026-05-05 16:25 | 12.91582 | 122.16039 | 31912 ft | 471 kts | 324° |
| 2026-05-05 16:25 | 12.99715 | 122.10254 | 31912 ft | 472 kts | 324° |
| 2026-05-05 16:26 | 13.10540 | 122.02554 | 31913 ft | 477 kts | 325° |
| 2026-05-05 16:27 | 13.16002 | 121.98669 | 31911 ft | 478 kts | 325° |
| 2026-05-05 16:27 | 13.21464 | 121.94785 | 31911 ft | 478 kts | 325° |
| 2026-05-05 16:28 | 13.26922 | 121.90904 | 31284 ft | 471 kts | 325° |
| 2026-05-05 16:28 | 13.29491 | 121.89078 | 30715 ft | 464 kts | 325° |
| 2026-05-05 16:28 | 13.32124 | 121.87206 | 30133 ft | 456 kts | 324° |
| 2026-05-05 16:29 | 13.34686 | 121.85386 | 29513 ft | 437 kts | 324° |
| 2026-05-05 16:29 | 13.37151 | 121.83633 | 28973 ft | 429 kts | 324° |
| 2026-05-05 16:29 | 13.38833 | 121.82437 | 28635 ft | 428 kts | 324° |
| 2026-05-05 16:29 | 13.41297 | 121.80686 | 28114 ft | 427 kts | 324° |
| 2026-05-05 16:30 | 13.43713 | 121.78969 | 27599 ft | 425 kts | 324° |
| 2026-05-05 16:30 | 13.45777 | 121.77502 | 27158 ft | 422 kts | 324° |
| 2026-05-05 16:30 | 13.48177 | 121.75796 | 26644 ft | 419 kts | 324° |
| 2026-05-05 16:30 | 13.50357 | 121.74246 | 26176 ft | 415 kts | 324° |
| 2026-05-05 16:31 | 13.52632 | 121.72629 | 25688 ft | 411 kts | 324° |
| 2026-05-05 16:31 | 13.54976 | 121.70963 | 25186 ft | 407 kts | 324° |
| 2026-05-05 16:31 | 13.57226 | 121.69365 | 24705 ft | 403 kts | 324° |
| 2026-05-05 16:31 | 13.59510 | 121.67742 | 24217 ft | 399 kts | 323° |
| 2026-05-05 16:32 | 13.61682 | 121.66199 | 23755 ft | 396 kts | 323° |
| 2026-05-05 16:32 | 13.63917 | 121.64610 | 23282 ft | 392 kts | 323° |
| 2026-05-05 16:32 | 13.66170 | 121.63010 | 22807 ft | 389 kts | 323° |
| 2026-05-05 16:32 | 13.68331 | 121.61417 | 22383 ft | 383 kts | 321° |
| 2026-05-05 16:33 | 13.70397 | 121.59690 | 21950 ft | 381 kts | 317° |
| 2026-05-05 16:33 | 13.72347 | 121.57890 | 21435 ft | 379 kts | 316° |
| 2026-05-05 16:33 | 13.74295 | 121.56091 | 20919 ft | 377 kts | 316° |
| 2026-05-05 16:33 | 13.76239 | 121.54302 | 20403 ft | 374 kts | 316° |
| 2026-05-05 16:34 | 13.78157 | 121.52541 | 19893 ft | 371 kts | 316° |
| 2026-05-05 16:34 | 13.80081 | 121.50776 | 19383 ft | 368 kts | 316° |
| 2026-05-05 16:34 | 13.81975 | 121.49040 | 18885 ft | 364 kts | 316° |
| 2026-05-05 16:34 | 13.83840 | 121.47329 | 18396 ft | 361 kts | 316° |
| 2026-05-05 16:35 | 13.85716 | 121.45611 | 17904 ft | 358 kts | 316° |
| 2026-05-05 16:35 | 13.87561 | 121.43920 | 17420 ft | 354 kts | 316° |
| 2026-05-05 16:35 | 13.89376 | 121.42258 | 16943 ft | 351 kts | 316° |
| 2026-05-05 16:35 | 13.90935 | 121.40403 | 16701 ft | 337 kts | 302° |
| 2026-05-05 16:36 | 13.92245 | 121.38448 | 16513 ft | 326 kts | 303° |
| 2026-05-05 16:36 | 13.93518 | 121.36597 | 16315 ft | 316 kts | 304° |
| 2026-05-05 16:36 | 13.94751 | 121.34824 | 16125 ft | 306 kts | 304° |
| 2026-05-05 16:36 | 13.95975 | 121.33077 | 15922 ft | 292 kts | 304° |
| 2026-05-05 16:37 | 13.97120 | 121.31449 | 15695 ft | 271 kts | 304° |
| 2026-05-05 16:37 | 13.98202 | 121.29915 | 15513 ft | 260 kts | 304° |
| 2026-05-05 16:37 | 13.99255 | 121.28423 | 15400 ft | 258 kts | 304° |
| 2026-05-05 16:37 | 14.00281 | 121.26971 | 15269 ft | 256 kts | 304° |
| 2026-05-05 16:38 | 14.01318 | 121.25504 | 15136 ft | 255 kts | 304° |
| 2026-05-05 16:38 | 14.02360 | 121.24031 | 15003 ft | 254 kts | 304° |
| 2026-05-05 16:38 | 14.03419 | 121.22535 | 14655 ft | 262 kts | 304° |
| 2026-05-05 16:38 | 14.04500 | 121.21008 | 14284 ft | 267 kts | 304° |
| 2026-05-05 16:39 | 14.05601 | 121.19453 | 13930 ft | 271 kts | 305° |
| 2026-05-05 16:39 | 14.06714 | 121.17883 | 13566 ft | 272 kts | 305° |
| 2026-05-05 16:39 | 14.07827 | 121.16313 | 13180 ft | 274 kts | 305° |
| 2026-05-05 16:39 | 14.08953 | 121.14723 | 12648 ft | 272 kts | 305° |
| 2026-05-05 16:40 | 14.10017 | 121.13223 | 12164 ft | 269 kts | 306° |
| 2026-05-05 16:40 | 14.11116 | 121.11674 | 11662 ft | 266 kts | 305° |
| 2026-05-05 16:40 | 14.12203 | 121.10145 | 11160 ft | 264 kts | 305° |
| 2026-05-05 16:40 | 14.13284 | 121.08622 | 10656 ft | 263 kts | 304° |
| 2026-05-05 16:41 | 14.14363 | 121.07101 | 10225 ft | 259 kts | 304° |
| 2026-05-05 16:41 | 14.15374 | 121.05676 | 9855 ft | 254 kts | 304° |
| 2026-05-05 16:41 | 14.16408 | 121.04217 | 9466 ft | 250 kts | 304° |
| 2026-05-05 16:41 | 14.17414 | 121.02800 | 9268 ft | 238 kts | 304° |
| 2026-05-05 16:42 | 14.18414 | 121.01401 | 8810 ft | 240 kts | 304° |
| 2026-05-05 16:42 | 14.19397 | 121.00012 | 8611 ft | 238 kts | 303° |
| 2026-05-05 16:42 | 14.20355 | 120.98656 | 8100 ft | 246 kts | 303° |
| 2026-05-05 16:42 | 14.21366 | 120.97229 | 7562 ft | 250 kts | 303° |
| 2026-05-05 16:43 | 14.22390 | 120.95785 | 7132 ft | 248 kts | 304° |
| 2026-05-05 16:43 | 14.23403 | 120.94357 | 6750 ft | 244 kts | 303° |
| 2026-05-05 16:43 | 14.24410 | 120.92939 | 6377 ft | 246 kts | 304° |
| 2026-05-05 16:43 | 14.25427 | 120.91505 | 6008 ft | 247 kts | 304° |
| 2026-05-05 16:44 | 14.26397 | 120.90139 | 5612 ft | 240 kts | 304° |
| 2026-05-05 16:44 | 14.27314 | 120.88866 | 5297 ft | 238 kts | 309° |
| 2026-05-05 16:44 | 14.28566 | 120.87738 | 5000 ft | 237 kts | 327° |
| 2026-05-05 16:44 | 14.30002 | 120.86948 | 4706 ft | 233 kts | 330° |
| 2026-05-05 16:45 | 14.31434 | 120.86153 | 4388 ft | 230 kts | 330° |
| 2026-05-05 16:45 | 14.32807 | 120.85379 | 4085 ft | 227 kts | 329° |
| 2026-05-05 16:45 | 14.34159 | 120.84608 | 3916 ft | 214 kts | 330° |
| 2026-05-05 16:45 | 14.35443 | 120.83866 | 3641 ft | 212 kts | 330° |
| 2026-05-05 16:46 | 14.36720 | 120.83128 | 3350 ft | 208 kts | 330° |
| 2026-05-05 16:46 | 14.37963 | 120.82413 | 3084 ft | 204 kts | 333° |
| 2026-05-05 16:46 | 14.39337 | 120.82213 | 2733 ft | 199 kts | 12° |
| 2026-05-05 16:46 | 14.40520 | 120.82837 | 2423 ft | 188 kts | 51° |
| 2026-05-05 16:47 | 14.41091 | 120.83958 | 2290 ft | 171 kts | 68° |
| 2026-05-05 16:47 | 14.41592 | 120.85038 | 2114 ft | 159 kts | 67° |
| 2026-05-05 16:47 | 14.42080 | 120.86018 | 1951 ft | 147 kts | 66° |
| 2026-05-05 16:47 | 14.42547 | 120.86916 | 1807 ft | 141 kts | 65° |
| 2026-05-05 16:48 | 14.43018 | 120.87800 | 1647 ft | 138 kts | 65° |
| 2026-05-05 16:48 | 14.43477 | 120.88645 | 1548 ft | 135 kts | 64° |
| 2026-05-05 16:48 | 14.43943 | 120.89495 | 1553 ft | 135 kts | 64° |
| 2026-05-05 16:48 | 14.44413 | 120.90350 | 1562 ft | 138 kts | 64° |
| 2026-05-05 16:49 | 14.44893 | 120.91216 | 1580 ft | 133 kts | 64° |
| 2026-05-05 16:49 | 14.45363 | 120.92065 | 1594 ft | 137 kts | 63° |
| 2026-05-05 16:49 | 14.45855 | 120.92948 | 1625 ft | 141 kts | 64° |
| 2026-05-05 16:49 | 14.46366 | 120.93868 | 1480 ft | 145 kts | 64° |
| 2026-05-05 16:50 | 14.46847 | 120.94731 | 1263 ft | 133 kts | 63° |
| 2026-05-05 16:50 | 14.47306 | 120.95554 | 1058 ft | 131 kts | 64° |
| 2026-05-05 16:50 | 14.47758 | 120.96368 | 897 ft | 131 kts | 64° |
| 2026-05-05 16:50 | 14.48207 | 120.97176 | 741 ft | 130 kts | 64° |
| 2026-05-05 16:51 | 14.48648 | 120.97986 | 596 ft | 130 kts | 64° |
| 2026-05-05 16:51 | 14.49100 | 120.98791 | 433 ft | 132 kts | 62° |
| 2026-05-05 16:51 | 14.49563 | 120.99596 | 213 ft | 130 kts | 63° |
| 2026-05-05 16:51 | 14.50004 | 121.00401 | 92 ft | 125 kts | 62° |
| 2026-05-05 16:52 | 14.50390 | 121.01103 | 82 ft | 93 kts | 60° |
| 2026-05-05 16:52 | 14.50619 | 121.01516 | 81 ft | 41 kts | 60° |
| 2026-05-05 16:52 | 14.50766 | 121.01716 | 81 ft | 31 kts | 41° |
| 2026-05-05 16:52 | 14.50876 | 121.01783 | 81 ft | 12 kts | 352° |
| 2026-05-05 16:53 | 14.50948 | 121.01728 | 81 ft | 13 kts | 315° |
| 2026-05-05 16:53 | 14.51019 | 121.01656 | 81 ft | 15 kts | 315° |
| 2026-05-05 16:53 | 14.51097 | 121.01575 | 81 ft | 16 kts | 315° |
| 2026-05-05 16:53 | 14.51178 | 121.01491 | 81 ft | 16 kts | 314° |
| 2026-05-05 16:54 | 14.51248 | 121.01427 | 81 ft | 10 kts | 347° |
| 2026-05-05 16:54 | 14.51307 | 121.01455 | 81 ft | 9 kts | 21° |
| 2026-05-05 16:54 | 14.51365 | 121.01433 | 81 ft | 9 kts | 322° |
| 2026-05-05 16:54 | 14.51414 | 121.01386 | 81 ft | 9 kts | 315° |
| 2026-05-05 16:55 | 14.51465 | 121.01334 | 81 ft | 11 kts | 315° |
| 2026-05-05 16:55 | 14.51531 | 121.01266 | 81 ft | 15 kts | 315° |
| 2026-05-05 16:55 | 14.51623 | 121.01171 | 81 ft | 19 kts | 315° |
| 2026-05-05 16:55 | 14.51722 | 121.01067 | 81 ft | 22 kts | 315° |
| 2026-05-05 16:56 | 14.51843 | 121.00943 | 81 ft | 26 kts | 316° |
| 2026-05-05 16:56 | 14.51978 | 121.00803 | 81 ft | 29 kts | 316° |
| 2026-05-05 16:56 | 14.52130 | 121.00646 | 81 ft | 32 kts | 315° |
| 2026-05-05 16:56 | 14.52294 | 121.00478 | 81 ft | 33 kts | 315° |
| 2026-05-05 16:57 | 14.52438 | 121.00328 | 81 ft | 25 kts | 315° |
| 2026-05-05 16:57 | 14.52554 | 121.00211 | 81 ft | 16 kts | 315° |
| 2026-05-05 16:57 | 14.52609 | 121.00153 | 81 ft | 6 kts | 314° |
| 2026-05-05 16:57 | 14.52632 | 121.00124 | 81 ft | 3 kts | 291° |
| 2026-05-05 16:58 | 14.52637 | 121.00108 | 81 ft | 0 kts | 281° |
| 2026-05-05 16:58 | 14.52638 | 121.00102 | 81 ft | 0 kts | 279° |
| 2026-05-05 16:58 | 14.52638 | 121.00099 | 81 ft | 0 kts | 279° |